Perwez, Belgium
Current Conditions -  °F | °C
As of 3:25 PM on Tuesday 21 Oct 2014 (Local Time) from EBBE Reporting Station
Rain Showers Rain Showers  
Wind Chill: 12°   Ceiling: 4000
Heat Index: 12°   Visibility: 6mi
Dew Point:   Wind: 17mph
Humidity: 82%   Direction: 290°WNW
Pressure: 29.59"   Gusts: NA
Location:  50.62°N, 4.81°E
Report Text: EBBE 211325Z 29015KT 9999 -SHRA SCT012 SCT016 BKN040 12/09 Q1002 GRN WHT TEMPO YLO
Loading
Personal Weather Stations






























Interactive Weather Map
Tropical Storm Tracking
New forecast layout! Learn more

10-Day Weather Forecast

Advertisements
Track Severe Weather on mobile